Weather at Aintree University Hospital Heliport

Public forecast

Using degrees Celsius for public forecast. Weather courtesy of forecast.io.

Closest aviation weather report (METAR) to Aintree University Hospital Heliport

Report is more than 6 hours old.

Closest report is RAF Woodvale, 8.4 nm (15.5 km) NNW. Retrieved 2020/11/25 14:20 UTC (13 hours ago):

EGOW 251420Z 27006KT 9999 FEW025 10/05 Q1013 RMK BLU

Closest aviation forecast (TAF) to Aintree University Hospital Heliport

Closest forecast is Liverpool John Lennon Airport, 8.4 nm (15.5 km) SSE. Retrieved 2020-11-26 00:00 UTC (3 hours ago):

TAF EGGP 252255Z 2600/2624 25005KT 9999 SCT045 PROB30 2604/2610 6000 PROB30 TEMPO 2616/2618 6000 BECMG 2618/2621 6000 TEMPO 2620/2624 3000 BR PROB30 TEMPO 2621/2624 0300 FG VV///